Latest Coastal Weather Observations for Cape Byron

IDN60701

Issued at 2:11 pm EST Wednesday 4 May 2016 (issued every 10 minutes, with the page automatically refreshed every 10 minutes)

About coastal observations | Map of coastal stations | Coastal observations for NSW | Marine services | Other Formats
Station Details ID: 058216 Name: CAPE BYRON AWS Lat: -28.64 Lon: 153.64 Height: 95.0 m
Data from the previous 72 hours. | See also: Recent months at Cape Byron
Date/Time
EST
Temp

°C
Wind Pressure Rain
since 9am
mm
Weather Cloud Vis
km
Sea
Height
m
Swell
Dir
 
Speed
knots
Gust
knots
hPa Trend Height
m
Period
s
Dir
04/02:00pm 22.4 S 15 18 1015.1 - 0.0 - - - - - - -
04/01:30pm 22.5 S 15 18 1015.1 - 0.0 - - - - - - -
04/01:00pm 22.7 S 13 16 1015.2 - 0.0 - - - - - - -
04/12:30pm 23.0 S 13 16 1015.4 - 0.0 - - - - - - -
04/12:00pm 23.0 S 12 15 1015.7 - 0.0 - - - - - - -
04/11:30am 23.2 SSW 9 12 1016.2 - 0.0 - - - - - - -
04/11:00am 22.8 SSW 8 11 1016.5 - 0.0 - - - - - - -
04/10:30am 22.3 WSW 9 14 1016.8 - 0.0 - - - - - - -
04/10:00am 21.7 SW 11 14 1017.1 - 0.0 - - - - - - -
04/09:30am 20.9 SW 12 16 1017.1 - 0.0 - - - - - - -
04/09:00am 20.1 WSW 9 11 1017.1 - 0.2 - - - - - - -
04/08:30am 19.4 WSW 11 15 1016.9 - 0.2 - - - - - - -
04/08:00am 19.1 WSW 12 17 1016.5 - 0.2 - - - - - - -
04/07:30am 18.5 WSW 14 18 1016.0 - 0.2 - - - - - - -
04/07:00am 18.5 W 15 18 1015.5 - 0.2 - - - - - - -
04/06:30am 18.6 W 14 17 1015.1 - 0.2 - - - - - - -
04/06:00am 18.9 W 13 16 1014.9 - 0.2 - - - - - - -
04/05:30am 19.1 WSW 13 15 1014.0 - 0.2 - - - - - - -
04/05:00am 19.1 W 12 14 1013.6 - 0.2 - - - - - - -
04/04:30am 18.9 W 9 11 1013.5 - 0.2 - - - - - - -
04/04:00am 19.3 W 10 12 1013.3 - 0.2 - - - - - - -
04/03:30am 19.6 WSW 9 11 1013.1 - 0.2 - - - - - - -
04/03:00am 19.8 W 10 14 1012.9 - 0.2 - - - - - - -
04/02:30am 19.5 W 8 11 1012.9 - 0.2 - - - - - - -
04/02:00am 19.5 W 8 10 1012.9 - 0.2 - - - - - - -
04/01:30am 19.5 W 9 13 1012.8 - 0.2 - - - - - - -
04/01:00am 19.8 W 10 14 1012.7 - 0.2 - - - - - - -
04/12:30am 20.1 W 11 16 1012.9 - 0.2 - - - - - - -
04/12:00am 20.0 WNW 8 12 1013.1 - 0.2 - - - - - - -
 
Date/Time
EST
Temp

°C
Wind Pressure Rain
since 9am
mm
Weather Cloud Vis
km
Sea
Height
m
Swell
Dir
 
Speed
knots
Gust
knots
hPa Trend Height
m
Period
s
Dir
03/11:30pm 19.9 WNW 7 10 1013.0 - 0.2 - - - - - - -
03/11:00pm 20.4 W 7 13 1013.2 - 0.2 - - - - - - -
03/10:30pm 20.1 WNW 10 14 1013.3 - 0.2 - - - - - - -
03/10:00pm 20.9 NW 5 8 1013.6 - 0.2 - - - - - - -
03/09:30pm 20.8 WNW 6 9 1013.8 - 0.2 - - - - - - -
03/09:00pm 21.4 WNW 5 8 1013.7 - 0.2 - - - - - - -
03/08:30pm 21.4 NW 5 8 1013.7 - 0.2 - - - - - - -
03/08:00pm 21.1 NW 5 9 1013.4 - 0.2 - - - - - - -
03/07:30pm 21.2 WNW 6 10 1013.1 - 0.2 - - - - - - -
03/07:00pm 22.2 NE 4 5 1012.6 - 0.2 - - - - - - -
03/06:30pm 22.7 NNW 7 11 1012.5 - 0.2 - - - - - - -
03/06:00pm 22.8 N 9 11 1011.6 - 0.2 - - - - - - -
03/05:30pm 22.9 N 9 11 1011.2 - 0.2 - - - - - - -
03/05:00pm 23.2 NNE 8 11 1010.9 - 0.2 - - - - - - -
03/04:30pm 23.6 N 9 11 1010.7 - 0.2 - - - - - - -
03/04:00pm 24.2 NE 11 13 1010.4 - 0.2 - - - - - - -
03/03:30pm 24.3 NE 10 12 1010.5 - 0.2 - - - - - - -
03/03:00pm 24.5 NE 10 11 1010.4 - 0.2 - - - - - - -
03/02:30pm 25.4 NE 7 9 1010.4 - 0.2 - - - - - - -
03/02:00pm 25.4 WSW 7 13 1010.7 - 0.2 - - - - - - -
03/01:30pm 25.4 WSW 9 15 1010.9 - 0.2 - - - - - - -
03/01:00pm 25.8 WSW 4 7 1011.3 - 0.2 - - - - - - -
03/12:30pm 26.1 NE 4 6 1011.7 - 0.2 - - - - - - -
03/12:00pm 25.8 NE 5 6 1012.1 - 0.2 - - - - - - -
03/11:30am 25.1 NE 6 8 1012.6 - 0.2 - - - - - - -
03/11:00am 24.3 ENE 6 8 1013.0 - 0.2 - - - - - - -
03/10:30am 23.9 ENE 4 7 1013.5 - 0.2 - - - - - - -
03/10:00am 23.1 NE 3 6 1013.8 - 0.2 - - - - - - -
03/09:30am 22.6 N 4 5 1014.1 - 0.2 - - - - - - -
03/09:00am 22.2 N 4 6 1014.3 - 7.2 - - - - - - -
03/08:30am 21.2 N 4 6 1014.3 - 7.2 - - - - - - -
03/08:00am 19.9 NNW 3 5 1014.3 - 7.2 - - - - - - -
03/07:30am 18.7 NNW 4 6 1014.2 - 7.2 - - - - - - -
03/07:00am 18.0 NW 5 6 1013.9 - 7.2 - - - - - - -
03/06:30am 17.6 NW 6 7 1013.9 - 7.2 - - - - - - -
03/06:00am 17.9 NW 6 7 1013.7 - 7.2 - - - - - - -
03/05:30am 18.0 NW 4 6 1013.6 - 7.2 - - - - - - -
03/05:00am 18.0 NNW 6 7 1013.2 - 7.2 - - - - - - -
03/04:30am 17.5 WNW 6 8 1013.1 - 7.2 - - - - - - -
03/04:00am 17.9 WNW 9 10 1013.2 - 7.2 - - - - - - -
03/03:30am 17.7 WNW 9 11 1013.2 - 7.2 - - - - - - -
03/03:00am 18.3 NW 7 9 1013.2 - 7.2 - - - - - - -
03/02:30am 17.9 NW 7 9 1013.2 - 7.2 - - - - - - -
03/02:00am 17.9 WNW 8 11 1013.4 - 7.2 - - - - - - -
03/01:30am 17.9 W 12 17 1014.1 - 7.0 - - - - - - -
03/01:00am 18.2 W 9 12 1014.2 - 6.8 - - - - - - -
03/12:30am 18.5 WNW 7 15 1014.7 - 5.8 - - - - - - -
03/12:00am 18.8 WSW 12 16 1014.7 - 4.4 Rain - - - - - -
 
Date/Time
EST
Temp

°C
Wind Pressure Rain
since 9am
mm
Weather Cloud Vis
km
Sea
Height
m
Swell
Dir
 
Speed
knots
Gust
knots
hPa Trend Height
m
Period
s
Dir
02/11:30pm 19.2 SW 8 10 1014.9 - 4.2 - - - - - - -
02/11:00pm 19.4 WSW 10 13 1016.0 - 3.6 - - - - - - -
02/10:30pm 19.7 WSW 6 9 1016.3 - 2.8 - - - - - - -
02/10:00pm 19.3 W 10 14 1016.4 - 2.4 - - - - - - -
02/09:30pm 21.3 WSW 7 8 1016.8 - 1.4 - - - - - - -
02/09:00pm 21.4 WSW 8 9 1017.0 - 0.2 Rain - - - - - -
02/08:30pm 21.5 W 8 10 1016.8 - 0.0 - - - - - - -
02/08:00pm 21.7 W 6 8 1016.6 - 0.0 - - - - - - -
02/07:30pm 22.5 NE 3 4 1016.4 - 0.0 - - - - - - -
02/07:00pm 22.4 E 5 7 1016.1 - 0.0 - - - - - - -
02/06:30pm 22.2 E 5 5 1015.9 - 0.0 - - - - - - -
02/06:00pm 22.2 E 5 5 1015.7 - 0.0 - - - - - - -
02/05:30pm 22.2 E 5 7 1015.5 - 0.0 - - - - - - -
02/05:00pm 22.2 E 6 7 1014.9 - 0.0 - - - - - - -
02/04:30pm 22.4 E 6 8 1014.5 - 0.0 - - - - - - -
02/04:00pm 22.7 E 7 8 1014.4 - 0.0 - - - - - - -
02/03:30pm 23.3 E 7 8 1014.2 - 0.0 - - - - - - -
02/03:00pm 24.3 E 7 8 1013.8 - 0.0 - - - - - - -
02/02:30pm 24.4 E 6 8 1014.0 - 0.0 - - - - - - -
02/02:00pm 25.3 E 6 7 1014.4 - 0.0 - - - - - - -
02/01:30pm 24.9 E 6 6 1014.9 - 0.0 - - - - - - -
02/01:00pm 25.0 E 5 7 1015.1 - 0.0 - - - - - - -
02/12:30pm 24.4 ESE 5 6 1015.4 - 0.0 - - - - - - -
02/12:00pm 24.6 SE 5 6 1016.1 - 0.0 - - - - - - -
02/11:30am 23.9 S 4 6 1016.7 - 0.0 - - - - - - -
02/11:00am 23.6 S 5 6 1017.0 - 0.0 - - - - - - -
02/10:30am 23.3 S 5 6 1017.6 - 0.0 - - - - - - -
02/10:00am 23.3 SSW 3 4 1017.8 - 0.0 - - - - - - -
02/09:30am 22.8 SW 5 6 1018.0 - 0.0 - - - - - - -
02/09:00am 22.5 SW 6 7 1018.0 - 0.0 - - - - - - -
02/08:30am 21.9 SW 5 6 1017.8 - 0.0 - - - - - - -
02/08:00am 20.8 SW 6 8 1017.9 - 0.0 - - - - - - -
02/07:30am 20.4 SW 6 7 1017.5 - 0.0 - - - - - - -
02/07:00am 20.3 SW 6 7 1017.3 - 0.0 - - - - - - -
02/06:30am 20.0 SW 4 5 1017.2 - 0.0 - - - - - - -
02/06:00am 20.3 SW 5 6 1017.1 - 0.0 - - - - - - -
02/05:30am 20.4 SW 4 5 1016.6 - 0.0 - - - - - - -
02/05:00am 20.3 WSW 6 7 1016.2 - 0.0 - - - - - - -
02/04:30am 20.4 SW 5 6 1016.0 - 0.0 - - - - - - -
02/04:00am 21.0 N 3 4 1015.7 - 0.0 - - - - - - -
02/03:30am 21.0 SW 5 7 1016.0 - 0.0 - - - - - - -
02/03:00am 21.3 W 3 5 1015.7 - 0.0 - - - - - - -
02/02:30am 21.4 W 6 9 1016.1 - 0.0 - - - - - - -
02/02:00am 21.5 W 6 7 1016.1 - 0.0 - - - - - - -
02/01:30am 22.2 NNE 6 9 1016.0 - 0.0 - - - - - - -
02/01:00am 22.3 N 10 14 1015.7 - 0.0 - - - - - - -
02/12:30am 21.9 N 7 11 1016.0 - 0.0 - - - - - - -
02/12:00am 21.5 NE 6 9 1015.7 - 0.0 - - - - - - -
 
Date/Time
EST
Temp

°C
Wind Pressure Rain
since 9am
mm
Weather Cloud Vis
km
Sea
Height
m
Swell
Dir
 
Speed
knots
Gust
knots
hPa Trend Height
m
Period
s
Dir
01/11:30pm 21.4 CALM 0 0 1016.5 - 0.0 - - - - - - -
01/11:00pm 21.2 WSW 5 7 1016.8 - 0.0 - - - - - - -
01/10:30pm 21.1 SW 6 7 1016.9 - 0.0 - - - - - - -
01/10:00pm 21.5 NNW 5 6 1016.4 - 0.0 - - - - - - -
01/09:30pm 21.6 NNW 6 8 1017.0 - 0.0 - - - - - - -
01/09:00pm 21.6 NNW 9 11 1016.9 - 0.0 - - - - - - -
01/08:30pm 21.6 NW 4 7 1017.1 - 0.0 - - - - - - -
01/08:00pm 21.7 NNE 4 5 1017.1 - 0.0 - - - - - - -
01/07:30pm 21.9 NW 3 5 1017.3 - 0.0 - - - - - - -
01/07:00pm 22.1 N 9 12 1016.3 - 0.0 - - - - - - -
01/06:30pm 22.2 NNW 7 10 1016.2 - 0.0 - - - - - - -
01/06:00pm 22.0 N 9 13 1015.9 - 0.0 - - - - - - -
01/05:30pm 21.9 N 10 13 1015.5 - 0.0 - - - - - - -
01/05:00pm 22.4 N 11 14 1015.7 - 0.0 - - - - - - -
01/04:30pm 22.6 N 11 16 1015.4 - 0.0 - - - - - - -
01/04:00pm 22.6 N 12 16 1015.8 - 0.0 - - - - - - -
01/03:30pm 22.8 N 11 15 1015.9 - 0.0 - - - - - - -
01/03:00pm 22.7 N 11 16 1015.5 - 0.0 - - - - - - -
01/02:30pm 22.9 N 9 13 1015.4 - 0.0 - - - - - - -

Other Formats:

Comma delimited format used in spreadsheet applications
http://www.bom.gov.au/fwo/IDN60701/IDN60701.94599.axf

JavaScript Object Notation format (JSON) in row-major order
http://www.bom.gov.au/fwo/IDN60701/IDN60701.94599.json